createdAt,value
2022-09-12T00:01:17.305Z,15.30
2022-09-12T00:03:51.072Z,13.48
2022-09-12T00:06:23.286Z,15.35
2022-09-12T00:09:08.413Z,14.77
2022-09-12T00:11:41.608Z,13.18
2022-09-12T00:14:10.697Z,15.02
2022-09-12T00:16:40.637Z,15.80
2022-09-12T00:19:08.828Z,14.10
2022-09-12T00:21:39.053Z,14.00
2022-09-12T00:24:06.592Z,12.88
2022-09-12T00:26:34.131Z,14.23
2022-09-12T00:29:04.247Z,14.20
2022-09-12T00:31:31.757Z,17.02
2022-09-12T00:34:01.345Z,16.55
2022-09-12T00:36:29.854Z,15.23
2022-09-12T00:39:01.616Z,17.48
2022-09-12T00:41:36.133Z,13.75
2022-09-12T00:44:12.451Z,14.45
2022-09-12T00:47:02.793Z,15.82
2022-09-12T00:49:36.795Z,14.70
2022-09-12T00:52:15.286Z,14.73
2022-09-12T00:54:52.349Z,18.75
2022-09-12T00:57:23.433Z,14.38
2022-09-12T01:00:01.915Z,15.73
2022-09-12T01:02:29.337Z,14.50
2022-09-12T01:04:56.971Z,14.70
2022-09-12T01:07:26.856Z,14.93
2022-09-12T01:09:53.939Z,14.75
2022-09-12T01:12:23.720Z,14.07
2022-09-12T01:14:53.515Z,15.45
2022-09-12T01:17:31.581Z,14.02
2022-09-12T01:20:11.174Z,15.35
2022-09-12T01:23:08.675Z,15.65
2022-09-12T01:25:54.623Z,14.55
2022-09-12T01:28:59.575Z,12.90
2022-09-12T01:32:01.756Z,12.68
2022-09-12T01:34:43.185Z,14.15
2022-09-12T01:37:38.443Z,13.75
2022-09-12T01:40:19.814Z,13.65
2022-09-12T01:42:54.163Z,15.57
2022-09-12T01:45:24.256Z,14.88
2022-09-12T01:47:59.199Z,13.52
2022-09-12T01:50:31.869Z,14.25
2022-09-12T01:53:08.785Z,13.60
2022-09-12T01:55:45.881Z,13.35
2022-09-12T01:58:19.565Z,13.32
2022-09-12T02:01:13.984Z,15.18
2022-09-12T02:04:14.689Z,14.85
2022-09-12T02:06:54.841Z,12.52
2022-09-12T02:09:29.527Z,15.52
2022-09-12T02:12:01.453Z,12.93
2022-09-12T02:14:36.595Z,13.00
2022-09-12T05:30:13.328Z,14.88
2022-09-12T05:32:40.828Z,12.88
2022-09-12T05:35:08.500Z,14.85
2022-09-12T05:37:35.722Z,14.55
2022-09-12T05:40:03.725Z,14.68
2022-09-12T05:42:31.210Z,21.13
2022-09-12T05:44:58.370Z,13.00
2022-09-12T05:47:26.329Z,14.63
2022-09-12T05:49:53.451Z,17.45
2022-09-12T05:52:22.999Z,15.32
2022-09-12T05:54:50.307Z,15.05
2022-09-12T05:57:19.771Z,15.13
2022-09-12T05:59:46.846Z,12.73
2022-09-12T06:02:16.788Z,13.35
2022-09-12T06:04:46.208Z,15.55
2022-09-12T06:07:13.523Z,13.70
2022-09-12T06:09:40.850Z,11.65
2022-09-12T06:12:08.056Z,10.35
2022-09-12T06:14:35.772Z,10.35
2022-09-12T06:17:03.087Z,9.73
2022-09-12T06:19:32.928Z,9.95
2022-09-12T06:21:59.945Z,8.68
2022-09-12T06:24:27.387Z,10.48
2022-09-12T06:26:54.530Z,10.65
2022-09-12T06:29:22.728Z,10.63
2022-09-12T06:31:52.647Z,10.73
2022-09-12T06:34:24.608Z,11.98
2022-09-12T06:36:54.549Z,11.45
2022-09-12T06:39:24.172Z,11.48
2022-09-12T06:41:53.678Z,11.40
2022-09-12T06:44:23.503Z,11.25
2022-09-12T06:46:50.827Z,12.85
2022-09-12T06:49:20.439Z,17.08
2022-09-12T06:51:50.091Z,20.08
2022-09-12T06:54:17.370Z,16.20
2022-09-12T06:56:45.211Z,13.48
2022-09-12T06:59:12.917Z,12.95
2022-09-12T07:01:40.498Z,12.43
2022-09-12T07:04:07.546Z,13.77
2022-09-12T07:06:43.424Z,14.00
2022-09-12T07:09:14.232Z,14.25
2022-09-12T07:11:46.140Z,14.07
2022-09-12T07:14:16.864Z,12.00
2022-09-12T07:16:46.571Z,15.73
2022-09-12T07:19:13.615Z,13.82
2022-09-12T07:21:43.398Z,12.23
2022-09-12T07:24:11.372Z,15.48
2022-09-12T07:26:40.805Z,13.77
2022-09-12T07:29:35.326Z,15.65
2022-09-12T07:32:03.556Z,12.20
2022-09-12T07:34:36.152Z,15.43
2022-09-12T07:37:04.640Z,12.77
2022-09-12T07:39:31.849Z,12.98
2022-09-12T07:41:58.995Z,12.57
2022-09-12T07:44:26.761Z,12.25
2022-09-12T07:46:53.805Z,11.55
2022-09-12T07:49:21.462Z,13.05
2022-09-12T07:51:48.860Z,13.98
2022-09-12T07:54:18.043Z,11.27
2022-09-12T07:56:45.123Z,11.38
2022-09-12T07:59:12.548Z,12.70
2022-09-12T08:01:39.652Z,11.85
2022-09-12T08:04:06.978Z,10.52
2022-09-12T08:06:34.933Z,12.93
2022-09-12T08:09:02.020Z,11.80
2022-09-12T08:11:32.313Z,12.88
2022-09-12T08:13:59.805Z,12.65
2022-09-12T08:16:31.081Z,9.80
2022-09-12T08:19:01.750Z,9.52
2022-09-12T08:21:31.104Z,9.93
2022-09-12T08:24:04.500Z,11.18
2022-09-12T08:28:35.801Z,9.73
2022-09-12T08:31:07.282Z,10.52
2022-09-12T08:33:36.986Z,10.80
2022-09-12T08:36:11.451Z,11.75
2022-09-12T08:38:41.047Z,9.68
2022-09-12T08:41:32.315Z,11.52
2022-09-12T08:44:29.975Z,10.63
2022-09-12T08:47:23.501Z,12.88
2022-09-12T08:50:09.180Z,11.25
2022-09-12T08:52:42.814Z,10.38
2022-09-12T08:57:53.730Z,12.70
2022-09-12T09:00:21.791Z,11.25
2022-09-12T09:03:00.610Z,10.35
2022-09-12T09:05:37.241Z,10.23
2022-09-12T09:08:32.139Z,10.57
2022-09-12T09:10:59.344Z,10.98
2022-09-12T09:13:38.676Z,9.82
2022-09-12T09:16:19.201Z,10.20
2022-09-12T09:18:48.025Z,11.55
2022-09-12T09:21:21.996Z,8.07
2022-09-12T09:23:57.184Z,10.88
2022-09-12T09:26:51.704Z,9.63
2022-09-12T09:29:30.005Z,10.38
2022-09-12T09:32:00.418Z,9.18
2022-09-12T09:34:31.613Z,7.60
2022-09-12T09:37:23.942Z,11.38
2022-09-12T09:40:19.046Z,10.57
2022-09-12T09:42:53.564Z,10.80
2022-09-12T09:45:24.165Z,8.85
2022-09-12T09:48:15.364Z,8.13
2022-09-12T09:50:43.491Z,8.75
2022-09-12T09:53:35.897Z,10.52
2022-09-12T09:56:09.174Z,7.68
2022-09-12T09:58:39.859Z,8.13
2022-09-12T10:01:15.291Z,7.30
2022-09-12T10:03:49.390Z,8.30
2022-09-12T10:06:24.782Z,8.23
2022-09-12T10:09:03.559Z,8.18
2022-09-12T10:11:32.734Z,6.30
2022-09-12T10:14:00.456Z,7.88
2022-09-12T10:16:47.868Z,6.10
2022-09-12T10:19:34.499Z,7.80
2022-09-12T10:22:05.668Z,7.68
2022-09-12T10:24:48.358Z,8.55
2022-09-12T10:27:19.348Z,10.52
2022-09-12T10:29:46.624Z,9.48
2022-09-12T10:32:30.381Z,9.15
2022-09-12T10:35:03.604Z,8.13
2022-09-12T10:37:36.371Z,8.05
2022-09-12T10:42:51.314Z,9.45
2022-09-12T10:45:32.137Z,58.55
2022-09-12T10:48:06.815Z,17.40
2022-09-12T10:50:44.145Z,10.38
2022-09-12T10:53:14.209Z,8.82
2022-09-12T10:55:53.033Z,9.93
2022-09-12T10:58:40.349Z,8.95
2022-09-12T11:01:32.073Z,10.05
2022-09-12T11:04:23.531Z,8.82
2022-09-12T11:07:02.525Z,9.00
2022-09-12T11:09:51.712Z,30.58
2022-09-12T11:12:27.819Z,37.13
2022-09-12T11:15:22.418Z,12.60
2022-09-12T11:17:58.439Z,11.95
2022-09-12T11:20:44.354Z,32.70
2022-09-12T11:23:24.841Z,50.85
2022-09-12T11:25:57.379Z,87.85
2022-09-12T11:28:47.966Z,27.17
2022-09-12T11:31:36.367Z,35.05
2022-09-12T11:34:09.035Z,100.75
2022-09-12T11:36:56.196Z,93.20
2022-09-12T11:39:34.589Z,44.28
2022-09-12T11:42:05.372Z,13.98
2022-09-12T11:44:43.147Z,10.95
2022-09-12T11:47:14.388Z,10.75
2022-09-12T11:49:49.982Z,14.63
2022-09-12T11:52:24.513Z,11.68
2022-09-12T11:55:03.626Z,11.45
2022-09-12T11:57:55.200Z,13.23
2022-09-12T12:00:32.090Z,9.18
2022-09-12T12:03:16.706Z,8.32
2022-09-12T12:05:55.273Z,9.45
2022-09-12T12:08:25.108Z,9.75
2022-09-12T12:10:58.023Z,9.35
2022-09-12T12:13:45.700Z,10.63
2022-09-12T12:16:21.231Z,9.27
2022-09-12T12:19:00.952Z,9.18
2022-09-12T12:21:44.196Z,8.10
2022-09-12T12:24:23.522Z,8.23
2022-09-12T12:26:50.688Z,9.38
2022-09-12T12:29:17.635Z,8.07
2022-09-12T12:32:00.361Z,10.20
2022-09-12T12:34:31.894Z,7.85
2022-09-12T12:37:20.094Z,8.13
2022-09-12T12:39:49.210Z,7.90
2022-09-12T12:42:34.521Z,10.32
2022-09-12T12:45:17.364Z,7.93
2022-09-12T12:47:48.787Z,11.25
2022-09-12T12:50:19.370Z,11.88
2022-09-12T12:52:55.377Z,9.80
2022-09-12T12:55:32.070Z,7.40
2022-09-12T12:58:03.600Z,7.50
2022-09-12T13:00:36.808Z,7.03
2022-09-12T13:03:06.874Z,7.78
2022-09-12T13:05:52.460Z,9.52
2022-09-12T13:08:19.480Z,8.18
2022-09-12T13:10:58.040Z,7.50
2022-09-12T13:13:50.877Z,8.93
2022-09-12T13:16:58.495Z,9.32
2022-09-12T13:19:35.936Z,7.32
2022-09-12T13:22:07.519Z,9.75
2022-09-12T13:24:46.250Z,8.52
2022-09-12T13:27:22.364Z,8.10
2022-09-12T13:30:07.124Z,8.90
2022-09-12T13:32:35.490Z,10.63
2022-09-12T13:35:45.238Z,7.35
2022-09-12T13:38:40.212Z,10.55
2022-09-12T13:41:48.726Z,11.45
2022-09-12T13:44:20.966Z,9.93
2022-09-12T13:46:48.917Z,10.35
2022-09-12T13:49:48.430Z,11.38
2022-09-12T13:52:25.698Z,9.07
2022-09-12T13:54:55.704Z,12.90
2022-09-12T13:57:35.625Z,10.27
2022-09-12T14:00:07.768Z,8.77
2022-09-12T14:02:36.778Z,8.27
2022-09-12T14:05:22.692Z,8.10
2022-09-12T14:07:52.595Z,9.80
2022-09-12T14:10:43.004Z,8.10
2022-09-12T14:13:11.734Z,41.03
2022-09-12T14:15:44.349Z,21.52
2022-09-12T14:18:28.658Z,15.10
2022-09-12T14:20:59.880Z,11.27
2022-09-12T14:23:32.562Z,8.65
2022-09-12T14:26:05.376Z,9.73
2022-09-12T14:28:33.952Z,9.20
2022-09-12T14:31:23.386Z,8.43
2022-09-12T14:33:55.623Z,8.45
2022-09-12T14:36:35.301Z,10.95
2022-09-12T14:39:18.226Z,10.80
2022-09-12T14:41:46.062Z,9.88
2022-09-12T14:44:23.537Z,16.73
2022-09-12T14:46:51.771Z,13.18
2022-09-12T14:49:21.282Z,12.68
2022-09-12T14:51:51.794Z,12.65
2022-09-12T14:54:38.866Z,12.23
2022-09-12T14:57:35.111Z,10.77
2022-09-12T15:00:11.563Z,12.50
2022-09-12T15:02:42.390Z,16.17
2022-09-12T15:05:13.127Z,12.40
2022-09-12T15:07:54.420Z,13.07
2022-09-12T15:10:38.142Z,16.20
2022-09-12T15:13:08.765Z,10.45
2022-09-12T15:15:37.351Z,17.05
2022-09-12T15:18:06.925Z,14.73
2022-09-12T15:20:38.249Z,9.95
2022-09-12T15:23:10.519Z,10.25
2022-09-12T15:25:37.670Z,11.10
2022-09-12T15:28:18.155Z,9.45
2022-09-12T15:30:50.162Z,9.23
2022-09-12T15:33:23.919Z,9.15
2022-09-12T15:35:54.057Z,8.88
2022-09-12T15:38:25.781Z,10.27
2022-09-12T15:40:54.837Z,8.93
2022-09-12T15:43:23.229Z,9.52
2022-09-12T15:45:53.421Z,7.40
2022-09-12T15:48:21.107Z,8.70
2022-09-12T15:50:50.694Z,9.05
2022-09-12T15:53:18.052Z,12.88
2022-09-12T15:55:45.663Z,9.30
2022-09-12T15:58:13.024Z,8.63
2022-09-12T16:00:42.855Z,10.13
2022-09-12T16:03:21.612Z,10.02
2022-09-12T16:05:49.284Z,10.25
2022-09-12T16:08:21.075Z,8.93
2022-09-12T16:10:52.828Z,8.82
2022-09-12T16:13:20.313Z,9.43
2022-09-12T16:15:50.131Z,8.68
2022-09-12T16:18:17.515Z,10.30
2022-09-12T16:20:47.345Z,8.63
2022-09-12T16:23:14.411Z,9.00
2022-09-12T16:25:41.503Z,33.63
2022-09-12T16:28:09.815Z,125.70
2022-09-12T16:30:36.892Z,69.88
2022-09-12T16:33:04.313Z,28.48
2022-09-12T16:35:32.271Z,15.10
2022-09-12T16:37:59.449Z,12.65
2022-09-12T16:40:26.580Z,11.05
2022-09-12T16:42:54.058Z,16.13
2022-09-12T16:45:21.144Z,45.47
2022-09-12T16:47:48.210Z,20.27
2022-09-12T16:50:18.083Z,12.63
2022-09-12T16:52:45.171Z,12.20
2022-09-12T16:55:12.527Z,19.45
2022-09-12T16:57:40.354Z,17.58
2022-09-12T17:00:10.819Z,12.02
2022-09-12T17:02:42.629Z,11.88
2022-09-12T17:05:09.999Z,9.93
2022-09-12T17:07:39.740Z,9.32
2022-09-12T17:10:09.716Z,10.70
2022-09-12T17:12:37.125Z,12.93
2022-09-12T17:15:04.717Z,11.43
2022-09-12T17:17:32.254Z,10.85
2022-09-12T17:20:00.091Z,11.38
2022-09-12T17:22:27.271Z,15.93
2022-09-12T17:24:54.631Z,13.57
2022-09-12T17:27:21.974Z,12.82
2022-09-12T17:29:49.387Z,14.25
2022-09-12T17:32:18.769Z,12.80
2022-09-12T17:34:49.178Z,14.00
2022-09-12T17:37:16.928Z,16.83
2022-09-12T17:39:44.694Z,16.92
2022-09-12T17:42:12.131Z,15.10
2022-09-12T17:44:42.868Z,19.58
2022-09-12T17:47:10.544Z,21.65
2022-09-12T17:49:40.528Z,18.83
2022-09-12T17:52:07.690Z,18.38
2022-09-12T17:54:37.979Z,22.58
2022-09-12T17:57:10.038Z,22.33
2022-09-12T17:59:37.394Z,18.50
2022-09-12T18:02:04.675Z,23.27
2022-09-12T18:04:35.153Z,18.55
2022-09-12T18:07:03.872Z,19.42
2022-09-12T18:09:31.370Z,16.48
2022-09-12T18:11:59.025Z,18.08
2022-09-12T18:14:27.682Z,14.27
2022-09-12T18:16:54.912Z,15.73
2022-09-12T18:19:22.854Z,13.85
2022-09-12T18:21:53.662Z,13.40
2022-09-12T18:24:21.666Z,12.27
2022-09-12T18:26:52.026Z,14.95
2022-09-12T18:29:23.675Z,12.43
2022-09-12T18:31:51.217Z,15.07
2022-09-12T18:34:23.003Z,11.63
2022-09-12T18:36:52.332Z,11.45
2022-09-12T18:39:26.888Z,17.15
2022-09-12T18:41:55.371Z,14.18
2022-09-12T18:44:25.366Z,18.70
2022-09-12T18:46:52.570Z,17.92
2022-09-12T18:49:20.185Z,18.10
2022-09-12T18:51:47.711Z,19.17
2022-09-12T18:54:25.061Z,22.92
2022-09-12T18:56:54.527Z,21.15
2022-09-12T18:59:21.756Z,21.88
2022-09-12T19:01:49.039Z,20.55
2022-09-12T19:04:16.283Z,16.95
2022-09-12T19:06:46.393Z,20.45
2022-09-12T19:09:17.269Z,18.73
2022-09-12T19:11:46.690Z,19.40
2022-09-12T19:14:13.722Z,20.52
2022-09-12T19:16:41.196Z,19.85
2022-09-12T19:19:08.655Z,16.40
2022-09-12T19:21:35.969Z,19.38
2022-09-12T19:24:10.303Z,18.58
2022-09-12T19:26:38.867Z,20.48
2022-09-12T19:29:07.085Z,19.00
2022-09-12T19:31:34.626Z,21.25
2022-09-12T19:34:07.849Z,21.75
2022-09-12T19:36:50.719Z,22.02
2022-09-12T19:39:18.638Z,26.35
2022-09-12T19:41:46.221Z,20.67
2022-09-12T19:44:16.285Z,21.60
2022-09-12T19:46:43.988Z,24.58
2022-09-12T19:49:12.177Z,24.33
2022-09-12T19:51:41.690Z,23.30
2022-09-12T19:54:11.890Z,23.30
2022-09-12T19:56:39.048Z,26.38
2022-09-12T19:59:06.347Z,22.65
2022-09-12T20:01:33.779Z,24.70
2022-09-12T20:04:01.257Z,24.05
2022-09-12T20:06:28.410Z,21.75
2022-09-12T20:08:56.071Z,25.17
2022-09-12T20:11:26.067Z,23.90
2022-09-12T20:13:56.134Z,23.55
2022-09-12T20:16:28.487Z,25.45
2022-09-12T20:19:01.632Z,25.10
2022-09-12T20:21:32.303Z,24.88
2022-09-12T20:24:05.014Z,27.13
2022-09-12T20:26:35.057Z,26.13
2022-09-12T20:29:07.596Z,27.33
2022-09-12T20:31:36.711Z,20.85
2022-09-12T20:34:05.220Z,28.15
2022-09-12T20:36:32.888Z,26.35
2022-09-12T20:39:01.802Z,22.92
2022-09-12T20:41:31.331Z,24.20
2022-09-12T20:43:58.486Z,24.75
2022-09-12T20:46:29.120Z,33.72
2022-09-12T20:48:56.798Z,32.40
2022-09-12T20:51:29.032Z,27.73
2022-09-12T20:54:00.632Z,27.70
2022-09-12T20:56:28.756Z,26.20
2022-09-12T20:58:56.578Z,43.55
2022-09-12T21:01:25.172Z,54.00
2022-09-12T21:03:53.532Z,46.28
2022-09-12T21:06:21.093Z,31.03
2022-09-12T21:08:49.374Z,27.38
2022-09-12T21:11:21.637Z,25.23
2022-09-12T21:13:48.849Z,25.63
2022-09-12T21:16:19.571Z,27.40
2022-09-12T21:18:47.218Z,22.80
2022-09-12T21:21:17.205Z,24.05
2022-09-12T21:23:44.501Z,27.02
2022-09-12T21:26:11.551Z,25.02
2022-09-12T21:28:38.683Z,26.85
2022-09-12T21:31:09.037Z,29.05
2022-09-12T21:33:40.775Z,28.02
2022-09-12T21:36:08.655Z,28.27
2022-09-12T21:38:35.952Z,27.75
2022-09-12T21:41:14.622Z,32.00
2022-09-12T21:43:47.603Z,31.00
2022-09-12T21:46:17.208Z,42.53
2022-09-12T21:48:47.011Z,39.20
2022-09-12T21:51:14.039Z,42.05
2022-09-12T21:53:43.838Z,36.95
2022-09-12T21:56:13.543Z,34.83
2022-09-12T21:58:42.913Z,30.58
2022-09-12T22:01:12.696Z,60.00
2022-09-12T22:03:40.271Z,55.05
2022-09-12T22:06:09.861Z,64.15
2022-09-12T22:08:41.708Z,35.15
2022-09-12T22:11:11.346Z,33.42
2022-09-12T22:13:40.915Z,33.10
2022-09-12T22:16:10.948Z,29.17
2022-09-12T22:18:39.002Z,29.42
2022-09-12T22:21:15.122Z,25.70
2022-09-12T22:23:42.853Z,24.80
2022-09-12T22:26:09.908Z,22.75
2022-09-12T22:28:37.029Z,22.83
2022-09-12T22:31:04.814Z,27.05
2022-09-12T22:33:36.278Z,25.23
2022-09-12T22:36:03.660Z,25.17
2022-09-12T22:38:31.318Z,23.98
2022-09-12T22:40:58.320Z,23.92
2022-09-12T22:43:25.902Z,22.92
2022-09-12T22:45:53.040Z,22.70
2022-09-12T22:48:25.275Z,23.45
2022-09-12T22:50:52.698Z,23.40
2022-09-12T22:53:20.345Z,23.98
2022-09-12T22:55:47.818Z,22.23
2022-09-12T22:58:15.236Z,21.83
2022-09-12T23:00:49.707Z,26.55
2022-09-12T23:03:17.981Z,21.35
2022-09-12T23:05:48.592Z,24.15
2022-09-12T23:08:17.478Z,21.98
2022-09-12T23:10:44.935Z,20.45
2022-09-12T23:13:12.444Z,22.75
2022-09-12T23:15:40.437Z,23.50
2022-09-12T23:18:07.746Z,19.55
2022-09-12T23:20:34.759Z,18.38
2022-09-12T23:23:01.818Z,22.42
2022-09-12T23:25:29.201Z,20.92
2022-09-12T23:27:58.651Z,24.45
2022-09-12T23:30:25.669Z,30.50
2022-09-12T23:32:53.150Z,34.35
2022-09-12T23:35:22.731Z,29.80
2022-09-12T23:37:49.706Z,29.27
2022-09-12T23:40:19.232Z,27.92
2022-09-12T23:42:46.347Z,23.70
2022-09-12T23:45:16.017Z,29.17
2022-09-12T23:47:43.575Z,30.63
2022-09-12T23:50:12.899Z,28.30
2022-09-12T23:52:42.297Z,27.02
2022-09-12T23:55:09.697Z,22.75
2022-09-12T23:57:36.851Z,21.23
